Check out our new PWSWeather beta!
PWSweather.com
Personal Weather Stations
Station Observations
SEVANL01
SevillaES 41004

SevillaES 41004

Lat: 37.383633, Lon: -5.985787

Elevation: 19.685

Station Type: Davis Vantage Pro2

www.tiempoensevilla.es

High Low Average
Temperature 76.2°F24.6°C 65.6°F18.7°C 69.1°F20.6°C
Dew Point 65.4°F18.6°C 61.0°F16.1°C 63.2°F17.3°C
Winds 9.7 mph 15.6 kmh 2.4 mph 3.9 kmh 5.0 mph SW8.0 kmh SW
Wind Gusts 21.0 mph33.8 kmh 7.0 mph11.3 kmh 12.0 mph19.3 kmh
Humidity 92% 63% 82%
Pressure 30.11 in1019.6 mb 29.86 in1011.2 mb -
Precipitation 0.05 in1.3 mm - -
Hour Temp Dew Point Humidity Winds Wind Gusts Pressure Precip Precip Rate Daily Precip Total
12:00 AM 67.0°F19.4°C 64.0°F17.8°C 90% 3.5 mph SSW5.6 kmh SSW 8.0 mph12.9 kmh 30.11 in1019.6 mb 0.00 in0.0 mm 0.00 in0.0 mm 0.00 in0.0 mm
12:20 AM 66.9°F19.4°C 64.2°F17.9°C 91% 4.4 mph SW7.1 kmh SW 12.0 mph19.3 kmh 30.11 in1019.6 mb 0.00 in0.0 mm 0.00 in0.0 mm 0.00 in0.0 mm
12:40 AM 67.0°F19.4°C 64.3°F17.9°C 91% 4.0 mph SSW6.4 kmh SSW 11.0 mph17.7 kmh 30.10 in1019.3 mb 0.00 in0.0 mm 0.00 in0.0 mm 0.00 in0.0 mm
01:00 AM 67.0°F19.4°C 64.3°F17.9°C 91% 5.1 mph SW8.2 kmh SW 14.0 mph22.5 kmh 30.10 in1019.3 mb 0.00 in0.0 mm 0.00 in0.0 mm 0.00 in0.0 mm
01:20 AM 67.0°F19.4°C 64.3°F17.9°C 91% 3.2 mph SSW5.1 kmh SSW 7.0 mph11.3 kmh 30.09 in1019.0 mb 0.00 in0.0 mm 0.00 in0.0 mm 0.00 in0.0 mm
01:40 AM 67.0°F19.4°C 64.3°F17.9°C 91% 2.6 mph SW4.2 kmh SW 7.0 mph11.3 kmh 30.08 in1018.6 mb 0.00 in0.0 mm 0.00 in0.0 mm 0.00 in0.0 mm
02:00 AM 67.0°F19.4°C 64.3°F17.9°C 91% 2.9 mph SSW4.7 kmh SSW 9.0 mph14.5 kmh 30.07 in1018.3 mb 0.00 in0.0 mm 0.00 in0.0 mm 0.00 in0.0 mm
02:20 AM 66.8°F19.3°C 64.1°F17.8°C 91% 4.9 mph SW7.9 kmh SW 10.0 mph16.1 kmh 30.07 in1018.3 mb 0.00 in0.0 mm 0.00 in0.0 mm 0.00 in0.0 mm
02:40 AM 66.6°F19.2°C 64.2°F17.9°C 92% 3.1 mph SSW5.0 kmh SSW 8.0 mph12.9 kmh 30.07 in1018.3 mb 0.00 in0.0 mm 0.00 in0.0 mm 0.00 in0.0 mm
03:00 AM 66.4°F19.1°C 64.0°F17.8°C 92% 3.4 mph SSW5.5 kmh SSW 8.0 mph12.9 kmh 30.06 in1017.9 mb 0.00 in0.0 mm 0.00 in0.0 mm 0.00 in0.0 mm
03:20 AM 66.4°F19.1°C 64.0°F17.8°C 92% 3.1 mph SSW5.0 kmh SSW 7.0 mph11.3 kmh 30.05 in1017.6 mb 0.00 in0.0 mm 0.00 in0.0 mm 0.00 in0.0 mm
03:40 AM 66.2°F19.0°C 63.8°F17.7°C 92% 3.5 mph SSW5.6 kmh SSW 9.0 mph14.5 kmh 30.04 in1017.3 mb 0.00 in0.0 mm 0.00 in0.0 mm 0.00 in0.0 mm
04:00 AM 66.2°F19.0°C 63.5°F17.5°C 91% 3.7 mph SW6.0 kmh SW 10.0 mph16.1 kmh 30.04 in1017.3 mb 0.00 in0.0 mm 0.00 in0.0 mm 0.00 in0.0 mm
04:20 AM 66.3°F19.1°C 63.6°F17.6°C 91% 4.0 mph SW6.4 kmh SW 10.0 mph16.1 kmh 30.04 in1017.3 mb 0.00 in0.0 mm 0.00 in0.0 mm 0.00 in0.0 mm
04:40 AM 66.4°F19.1°C 63.4°F17.4°C 90% 6.5 mph SW10.5 kmh SW 11.0 mph17.7 kmh 30.03 in1016.9 mb 0.00 in0.0 mm 0.00 in0.0 mm 0.00 in0.0 mm
05:00 AM 66.4°F19.1°C 63.4°F17.4°C 90% 6.0 mph SW9.7 kmh SW 14.0 mph22.5 kmh 30.03 in1016.9 mb 0.00 in0.0 mm 0.00 in0.0 mm 0.00 in0.0 mm
05:20 AM 66.5°F19.2°C 63.2°F17.3°C 89% 6.8 mph SW10.9 kmh SW 14.0 mph22.5 kmh 30.02 in1016.6 mb 0.00 in0.0 mm 0.00 in0.0 mm 0.00 in0.0 mm
05:40 AM 66.6°F19.2°C 62.9°F17.2°C 88% 6.0 mph SW9.7 kmh SW 15.0 mph24.1 kmh 30.02 in1016.6 mb 0.00 in0.0 mm 0.00 in0.0 mm 0.00 in0.0 mm
06:00 AM 66.5°F19.2°C 63.2°F17.3°C 89% 6.0 mph SW9.7 kmh SW 11.0 mph17.7 kmh 30.01 in1016.3 mb 0.00 in0.0 mm 0.00 in0.0 mm 0.00 in0.0 mm
06:20 AM 66.3°F19.1°C 63.3°F17.4°C 90% 4.6 mph SW7.4 kmh SW 10.0 mph16.1 kmh 30.01 in1016.3 mb 0.00 in0.0 mm 0.00 in0.0 mm 0.00 in0.0 mm
06:40 AM 66.1°F18.9°C 63.4°F17.4°C 91% 5.0 mph SW8.0 kmh SW 10.0 mph16.1 kmh 30.01 in1016.3 mb 0.02 in0.5 mm 0.06 in1.5 mm 0.02 in0.5 mm
07:00 AM 65.8°F18.8°C 63.4°F17.4°C 92% 4.0 mph SW6.4 kmh SW 8.0 mph12.9 kmh 30.00 in1015.9 mb 0.04 in1.0 mm 0.03 in0.8 mm 0.04 in1.0 mm
07:20 AM 65.7°F18.7°C 63.3°F17.4°C 92% 4.0 mph WSW6.4 kmh WSW 10.0 mph16.1 kmh 30.00 in1015.9 mb 0.05 in1.3 mm 0.03 in0.8 mm 0.05 in1.3 mm
07:40 AM 65.6°F18.7°C 63.2°F17.3°C 92% 4.0 mph SW6.4 kmh SW 8.0 mph12.9 kmh 29.99 in1015.6 mb 0.02 in0.5 mm 0.00 in0.0 mm 0.05 in1.3 mm
08:00 AM 65.6°F18.7°C 63.2°F17.3°C 92% 5.8 mph SW9.3 kmh SW 13.0 mph20.9 kmh 29.98 in1015.2 mb 0.01 in0.3 mm 0.00 in0.0 mm 0.05 in1.3 mm
08:20 AM 65.7°F18.7°C 63.3°F17.4°C 92% 5.0 mph SW8.0 kmh SW 10.0 mph16.1 kmh 29.98 in1015.2 mb 0.00 in0.0 mm 0.00 in0.0 mm 0.05 in1.3 mm
08:40 AM 65.8°F18.8°C 63.4°F17.4°C 92% 2.4 mph SW3.9 kmh SW 9.0 mph14.5 kmh 29.99 in1015.6 mb 0.00 in0.0 mm 0.00 in0.0 mm 0.05 in1.3 mm
09:00 AM 66.1°F18.9°C 63.7°F17.6°C 92% 3.2 mph WSW5.1 kmh WSW 9.0 mph14.5 kmh 29.99 in1015.6 mb 0.00 in0.0 mm 0.00 in0.0 mm 0.05 in1.3 mm
09:20 AM 66.5°F19.2°C 64.1°F17.8°C 92% 3.3 mph WSW5.3 kmh WSW 9.0 mph14.5 kmh 30.00 in1015.9 mb 0.00 in0.0 mm 0.00 in0.0 mm 0.05 in1.3 mm
09:40 AM 66.8°F19.3°C 64.4°F18.0°C 92% 4.0 mph SW6.4 kmh SW 11.0 mph17.7 kmh 29.99 in1015.6 mb 0.00 in0.0 mm 0.00 in0.0 mm 0.05 in1.3 mm
10:00 AM 67.2°F19.6°C 64.5°F18.1°C 91% 4.3 mph SW6.9 kmh SW 9.0 mph14.5 kmh 29.98 in1015.2 mb 0.00 in0.0 mm 0.00 in0.0 mm 0.05 in1.3 mm
10:20 AM 67.7°F19.8°C 64.7°F18.2°C 90% 5.0 mph SW8.0 kmh SW 11.0 mph17.7 kmh 29.99 in1015.6 mb 0.00 in0.0 mm 0.00 in0.0 mm 0.05 in1.3 mm
10:40 AM 68.5°F20.3°C 64.8°F18.2°C 88% 5.0 mph WSW8.0 kmh WSW 10.0 mph16.1 kmh 29.98 in1015.2 mb 0.00 in0.0 mm 0.00 in0.0 mm 0.05 in1.3 mm
11:00 AM 69.1°F20.6°C 65.1°F18.4°C 87% 4.7 mph WSW7.6 kmh WSW 11.0 mph17.7 kmh 29.98 in1015.2 mb 0.00 in0.0 mm 0.00 in0.0 mm 0.05 in1.3 mm
11:20 AM 70.1°F21.2°C 65.4°F18.6°C 85% 5.8 mph WSW9.3 kmh WSW 12.0 mph19.3 kmh 29.98 in1015.2 mb 0.00 in0.0 mm 0.00 in0.0 mm 0.05 in1.3 mm
11:40 AM 70.8°F21.6°C 65.0°F18.3°C 82% 6.8 mph SW10.9 kmh SW 14.0 mph22.5 kmh 29.97 in1014.9 mb 0.00 in0.0 mm 0.00 in0.0 mm 0.05 in1.3 mm
12:00 PM 70.9°F21.6°C 64.4°F18.0°C 80% 5.0 mph W8.0 kmh W 10.0 mph16.1 kmh 29.96 in1014.6 mb 0.00 in0.0 mm 0.00 in0.0 mm 0.05 in1.3 mm
12:20 PM 70.8°F21.6°C 64.0°F17.8°C 79% 4.6 mph WSW7.4 kmh WSW 11.0 mph17.7 kmh 29.96 in1014.6 mb 0.00 in0.0 mm 0.00 in0.0 mm 0.05 in1.3 mm
12:40 PM 70.6°F21.4°C 63.8°F17.7°C 79% 4.8 mph W7.7 kmh W 12.0 mph19.3 kmh 29.95 in1014.2 mb 0.00 in0.0 mm 0.00 in0.0 mm 0.05 in1.3 mm
01:00 PM 72.1°F22.3°C 63.7°F17.6°C 75% 5.7 mph WSW9.2 kmh WSW 14.0 mph22.5 kmh 29.93 in1013.5 mb 0.00 in0.0 mm 0.00 in0.0 mm 0.05 in1.3 mm
01:20 PM 73.7°F23.2°C 64.1°F17.8°C 72% 6.3 mph WSW10.1 kmh WSW 16.0 mph25.7 kmh 29.93 in1013.5 mb 0.00 in0.0 mm 0.00 in0.0 mm 0.05 in1.3 mm
01:40 PM 75.0°F23.9°C 63.7°F17.6°C 68% 8.6 mph SW13.8 kmh SW 20.0 mph32.2 kmh 29.92 in1013.2 mb 0.00 in0.0 mm 0.00 in0.0 mm 0.05 in1.3 mm
02:00 PM 74.0°F23.3°C 63.2°F17.3°C 69% 5.9 mph WSW9.5 kmh WSW 12.0 mph19.3 kmh 29.91 in1012.9 mb 0.00 in0.0 mm 0.00 in0.0 mm 0.05 in1.3 mm
02:20 PM 75.2°F24.0°C 63.1°F17.3°C 66% 8.5 mph WSW13.7 kmh WSW 18.0 mph29.0 kmh 29.89 in1012.2 mb 0.00 in0.0 mm 0.00 in0.0 mm 0.05 in1.3 mm
02:40 PM 75.3°F24.1°C 62.7°F17.1°C 65% 8.5 mph WSW13.7 kmh WSW 19.0 mph30.6 kmh 29.89 in1012.2 mb 0.00 in0.0 mm 0.00 in0.0 mm 0.05 in1.3 mm
03:00 PM 75.5°F24.2°C 62.5°F16.9°C 64% 8.3 mph WSW13.4 kmh WSW 16.0 mph25.7 kmh 29.88 in1011.9 mb 0.00 in0.0 mm 0.00 in0.0 mm 0.05 in1.3 mm
03:20 PM 75.7°F24.3°C 62.7°F17.1°C 64% 8.5 mph WSW13.7 kmh WSW 18.0 mph29.0 kmh 29.87 in1011.5 mb 0.00 in0.0 mm 0.00 in0.0 mm 0.05 in1.3 mm
03:40 PM 76.2°F24.6°C 62.7°F17.1°C 63% 7.3 mph WSW11.7 kmh WSW 18.0 mph29.0 kmh 29.87 in1011.5 mb 0.00 in0.0 mm 0.00 in0.0 mm 0.05 in1.3 mm
04:00 PM 76.1°F24.5°C 63.0°F17.2°C 64% 8.7 mph SW14.0 kmh SW 18.0 mph29.0 kmh 29.86 in1011.2 mb 0.00 in0.0 mm 0.00 in0.0 mm 0.05 in1.3 mm
04:20 PM 75.5°F24.2°C 63.3°F17.4°C 66% 9.6 mph SW15.4 kmh SW 18.0 mph29.0 kmh 29.86 in1011.2 mb 0.00 in0.0 mm 0.00 in0.0 mm 0.05 in1.3 mm
04:40 PM 75.1°F23.9°C 63.4°F17.4°C 67% 7.9 mph SW12.7 kmh SW 18.0 mph29.0 kmh 29.86 in1011.2 mb 0.00 in0.0 mm 0.00 in0.0 mm 0.05 in1.3 mm
05:00 PM 75.0°F23.9°C 63.3°F17.4°C 67% 7.4 mph SW11.9 kmh SW 18.0 mph29.0 kmh 29.86 in1011.2 mb 0.00 in0.0 mm 0.00 in0.0 mm 0.05 in1.3 mm
05:20 PM 74.1°F23.4°C 62.9°F17.2°C 68% 8.8 mph SW14.2 kmh SW 21.0 mph33.8 kmh 29.86 in1011.2 mb 0.00 in0.0 mm 0.00 in0.0 mm 0.05 in1.3 mm
05:40 PM 73.1°F22.8°C 62.3°F16.8°C 69% 9.7 mph WSW15.6 kmh WSW 17.0 mph27.4 kmh 29.86 in1011.2 mb 0.00 in0.0 mm 0.00 in0.0 mm 0.05 in1.3 mm
06:00 PM 72.2°F22.3°C 62.3°F16.8°C 71% 7.6 mph SW12.2 kmh SW 19.0 mph30.6 kmh 29.86 in1011.2 mb 0.00 in0.0 mm 0.00 in0.0 mm 0.05 in1.3 mm
06:20 PM 71.3°F21.8°C 62.2°F16.8°C 73% 8.0 mph SW12.9 kmh SW 17.0 mph27.4 kmh 29.86 in1011.2 mb 0.00 in0.0 mm 0.00 in0.0 mm 0.05 in1.3 mm
06:40 PM 70.7°F21.5°C 62.4°F16.9°C 75% 8.0 mph SW12.9 kmh SW 15.0 mph24.1 kmh 29.86 in1011.2 mb 0.00 in0.0 mm 0.00 in0.0 mm 0.05 in1.3 mm
07:00 PM 70.3°F21.3°C 62.4°F16.9°C 76% 7.1 mph SW11.4 kmh SW 14.0 mph22.5 kmh 29.87 in1011.5 mb 0.00 in0.0 mm 0.00 in0.0 mm 0.05 in1.3 mm
07:20 PM 69.8°F21.0°C 62.3°F16.8°C 77% 6.6 mph SW10.6 kmh SW 15.0 mph24.1 kmh 29.87 in1011.5 mb 0.00 in0.0 mm 0.00 in0.0 mm 0.05 in1.3 mm
07:40 PM 69.4°F20.8°C 62.2°F16.8°C 78% 5.5 mph WSW8.9 kmh WSW 10.0 mph16.1 kmh 29.88 in1011.9 mb 0.00 in0.0 mm 0.00 in0.0 mm 0.05 in1.3 mm
08:00 PM 68.8°F20.4°C 62.0°F16.7°C 79% 5.3 mph SW8.5 kmh SW 10.0 mph16.1 kmh 29.87 in1011.5 mb 0.00 in0.0 mm 0.00 in0.0 mm 0.05 in1.3 mm
08:20 PM 68.4°F20.2°C 62.0°F16.7°C 80% 4.9 mph SW7.9 kmh SW 10.0 mph16.1 kmh 29.88 in1011.9 mb 0.00 in0.0 mm 0.00 in0.0 mm 0.05 in1.3 mm
08:40 PM 68.4°F20.2°C 62.0°F16.7°C 80% 5.3 mph WSW8.5 kmh WSW 10.0 mph16.1 kmh 29.88 in1011.9 mb 0.00 in0.0 mm 0.00 in0.0 mm 0.05 in1.3 mm
09:00 PM 68.4°F20.2°C 62.0°F16.7°C 80% 4.1 mph WSW6.6 kmh WSW 9.0 mph14.5 kmh 29.88 in1011.9 mb 0.00 in0.0 mm 0.00 in0.0 mm 0.05 in1.3 mm
09:20 PM 68.4°F20.2°C 61.6°F16.4°C 79% 3.9 mph SW6.3 kmh SW 12.0 mph19.3 kmh 29.88 in1011.9 mb 0.00 in0.0 mm 0.00 in0.0 mm 0.05 in1.3 mm
09:40 PM 67.8°F19.9°C 61.8°F16.6°C 81% 3.0 mph SW4.8 kmh SW 8.0 mph12.9 kmh 29.89 in1012.2 mb 0.00 in0.0 mm 0.00 in0.0 mm 0.05 in1.3 mm
10:00 PM 67.5°F19.7°C 61.5°F16.4°C 81% 3.8 mph SW6.1 kmh SW 10.0 mph16.1 kmh 29.89 in1012.2 mb 0.00 in0.0 mm 0.00 in0.0 mm 0.05 in1.3 mm
10:20 PM 67.1°F19.5°C 61.4°F16.3°C 82% 4.0 mph SW6.4 kmh SW 9.0 mph14.5 kmh 29.89 in1012.2 mb 0.00 in0.0 mm 0.00 in0.0 mm 0.05 in1.3 mm
10:40 PM 66.9°F19.4°C 61.6°F16.4°C 83% 4.0 mph SW6.4 kmh SW 8.0 mph12.9 kmh 29.88 in1011.9 mb 0.00 in0.0 mm 0.00 in0.0 mm 0.05 in1.3 mm
11:00 PM 66.7°F19.3°C 61.4°F16.3°C 83% 3.6 mph SW5.8 kmh SW 8.0 mph12.9 kmh 29.88 in1011.9 mb 0.00 in0.0 mm 0.00 in0.0 mm 0.05 in1.3 mm
11:20 PM 66.7°F19.3°C 61.0°F16.1°C 82% 4.1 mph SW6.6 kmh SW 8.0 mph12.9 kmh 29.88 in1011.9 mb 0.00 in0.0 mm 0.00 in0.0 mm 0.05 in1.3 mm
11:40 PM 66.5°F19.2°C 61.2°F16.2°C 83% 4.0 mph SW6.4 kmh SW 8.0 mph12.9 kmh 29.89 in1012.2 mb 0.00 in0.0 mm 0.00 in0.0 mm 0.05 in1.3 mm